Terminal Aerodrome Forecast
Issued by NWS

Home | Current Version | Previous Version | Text Only | Print | Product List | Glossary On
Versions: 1 2 3 4 5 6 7 8 9 10 11 12 13 14 15 16 17 18
000
FTUS41 KGYX 100500
TAFRKD
TAF
KRKD 100520Z 1006/1106 24005KT P6SM -SHRA SCT060 BKN100
     FM100700 VRB03KT P6SM FEW060 BKN120
     FM101200 29005KT P6SM SKC
     FM101800 22007KT P6SM FEW050
     FM110000 VRB03KT P6SM SKC
      AMD LTD TO CLD VIS AND WIND=

USA.gov is the U.S. government's official web portal to all federal, state and local government web resources and services.